Tiffin, Ohio
Current Conditions -  °F | °C
As of 7:53 PM on Saturday 22 Nov 2014 (Local Time) from KFDY Reporting Station
Overcast Overcast  
Wind Chill: 50°   Ceiling: 4600
Heat Index: 50°   Visibility: 10mi
Dew Point: 40°   Wind: 14mph
Humidity: 68%   Direction: 190°S
Pressure: 29.99"   Gusts: NA
Location:  41.12°N, 83.18°W
Report Text: KFDY 230053Z AUTO 19012KT 10SM OVC046 10/04 A2999 RMK AO2 RAB21E33 SLP157 P0000 T01000044
Loading
Personal Weather Stations






























Interactive Weather Map New forecast layout! Learn more

10-Day Weather Forecast

Advertisements
Track Severe Weather on mobile